LFMU

Details ICAO LFMU (BZR)
Name Beziers Vias
Region France
Timezone Europe/Paris (UTC+2.0)
Plans Departing 133
Arriving 193
Stats Elevation 54 ft / 16 m (AMSL)
Location 43.323300° 3.354690°
Runways 1
Magnetic Variation 1.268° E
Sunrise 2019-05-24 04:16:02 UTC / 2019-05-24 06:16:02 Local
Sunset 2019-05-24 19:13:37 UTC / 2019-05-24 21:13:37 Local
Advertisement - Login to hide

Runways

ID Width Length Bearing (true/mag) Surface Threshold Overrun Markings Lighting
09 148 ft / 45 m 6,568 ft / 2,002 m 94.39° / 93.12° ASPHALT 0 ft / 0 m 154 ft / 47 m PREC-APP EDGE THRESHOLD REIL-OMNI
27 148 ft / 45 m 6,568 ft / 2,002 m 274.41° / 273.14° ASPHALT 0 ft / 0 m 151 ft / 46 m PREC-APP EDGE THRESHOLD REIL-OMNI

Approach Navaids

Runway Type Ident Frequency Range Bearing (true/mag) Slope Elevation
09 DME ZR 109.35 MHz 18 nm / 33 km - - 92 ft / 28 m (AMSL)

Map

Weather


0- 5 10 15 20 25 30 35+ Temperature / °C

Clouds and Precipitation
Forecast for 2019-05-24 12:00 UTC. Updated 5 hours ago

Ground ~20,000 ft ~40,000 ft Winds

METAR

LFMU 241430Z AUTO 27015KT CAVOK 21/14 Q1014 TEMPO 27020G30KT SHRA SCT040TCU

TAF

TAF LFMU 240800Z 2409/2509 26010KT CAVOK PROB30 TEMPO 2409/2413 SHRA TEMPO 2413/2424 27020G30KT SHRA SCT040TCU TEMPO 2500/2506 SHRA BKN014 FEW040TCU

Frequencies

Recorded 127.52 MHz Beziers Atis
Approach 120.17 MHz Beziers Approach
Tower 120.17 MHz tower
Warning: Do not use this data for real-world aviation or navigation. No guarantee of current accuracy is given.